Carnival Victory — 3FFL8 — position and weather

sailwx.info

Track history (hours):
 
Tides and Currents Weather Stations Pressure Air Temp Water Temp Dewpoint Dewpoint Depression Visibility Wind Speed Wind Dir Waves Ship Positions

Carnival Victory

Operator: Carnival Cruise Lines

Last reported at 2018-Jun-23 00:30 UTC. Time now 2018-Jun-23 00:26 UTC.
Position N 26°14' W 079°15'.

Type: Passenger vessel. MMSI: 355263000.

Date/timePositionNaut miles runAvg speedWind from/ knotsBaromVisibWave heightAir tempDewpointWater temp
2018-Jun-23 00:30N 26°14' W 079°15'612.6
2018-Jun-23 00:00N 26°10' W 079°21'611.9
2018-Jun-22 23:30N 26°07' W 079°27'611.5
2018-Jun-22 23:00N 26°04' W 079°32'611.5
2018-Jun-22 22:30N 26°01' W 079°38'611.7
2018-Jun-22 22:00N 25°58' W 079°43'713.2
2018-Jun-22 21:30N 25°54' W 079°49'816.3
2018-Jun-22 21:00N 25°50' W 079°57'714.4
2018-Jun-22 20:30N 25°46' W 080°04'5 9.6
2018-Jun-22 20:00N 25°46' W 080°09'1 1.4
2018-Jun-22 19:30N 25°47' W 080°10'0 0.0
2018-Jun-22 19:00N 25°47' W 080°10'0 0.0
2018-Jun-22 18:30N 25°47' W 080°10'0 0.0
2018-Jun-22 18:00N 25°47' W 080°10'0 0.0
2018-Jun-22 17:24N 25°47' W 080°10'0 0.0
2018-Jun-22 17:00N 25°47' W 080°10'0 0.0
2018-Jun-22 16:27N 25°47' W 080°10'0 0.0
2018-Jun-22 15:57N 25°47' W 080°10'0 0.0
2018-Jun-22 15:21N 25°47' W 080°10'0 0.0
2018-Jun-22 14:57N 25°47' W 080°10'0 0.0
2018-Jun-22 14:24N 25°47' W 080°10'0 0.0
2018-Jun-22 13:57N 25°47' W 080°10'0 0.0
2018-Jun-22 13:30N 25°47' W 080°10'0 0.0
2018-Jun-22 13:00N 25°47' W 080°10'0 0.0
2018-Jun-22 12:27N 25°47' W 080°10'0 0.0
2018-Jun-22 12:00N 25°47' W 080°10'0 0.0
2018-Jun-22 11:30N 25°47' W 080°10'0 0.0
2018-Jun-22 10:57N 25°47' W 080°10'0 0.3
2018-Jun-22 10:30N 25°47' W 080°10'0 0.9
2018-Jun-22 10:00N 25°47' W 080°10'5 9.7
2018-Jun-22 09:31N 25°46' W 080°04'5 9.8
2018-Jun-22 09:00N 25°45' W 079°59'510.5
2018-Jun-22 08:30N 25°41' W 079°56'511.1
2018-Jun-22 08:00N 25°36' W 079°55'712.9
2018-Jun-22 07:30N 25°29' W 079°54'612.8
2018-Jun-22 06:59N 25°23' W 079°55'18914.5
2018-Jun-21 18:00N 23°30' W 082°42'15419.2 050 / 11015.8 5.4 27.024.325.0
2018-Jun-21 10:00N 22°12' W 085°06'13119.2 120 / 141013.727.0 26.021.828.8
2018-Jun-21 03:10N 20°43' W 086°50'320.2
2018-Jun-21 03:00N 20°41' W 086°53'1019.3
2018-Jun-21 02:30N 20°33' W 086°59'5 8.8
2018-Jun-21 01:58N 20°29' W 086°59'0 0.0
2018-Jun-21 01:28N 20°29' W 086°59'0 0.0
2018-Jun-21 00:58N 20°29' W 086°59'0 0.0
2018-Jun-21 00:28N 20°29' W 086°59'0 0.0
2018-Jun-20 23:58N 20°29' W 086°59'0 0.0
2018-Jun-20 23:28N 20°29' W 086°59'0 0.0
2018-Jun-20 22:58N 20°29' W 086°59'0 0.0
2018-Jun-20 22:28N 20°29' W 086°59'0 0.0
2018-Jun-20 21:58N 20°29' W 086°59'0 0.0
2018-Jun-20 21:28N 20°29' W 086°59'0 0.0
2018-Jun-20 20:55N 20°29' W 086°59'0 0.0
2018-Jun-20 20:28N 20°29' W 086°59'0 0.0
2018-Jun-20 19:58N 20°29' W 086°59'0 0.0
2018-Jun-20 19:28N 20°29' W 086°59'0 0.0
2018-Jun-20 18:55N 20°29' W 086°59'0 0.0
2018-Jun-20 18:28N 20°29' W 086°59'0 0.0
2018-Jun-20 17:58N 20°29' W 086°59'0 0.0
2018-Jun-20 17:28N 20°29' W 086°59'0 0.0
2018-Jun-20 16:58N 20°29' W 086°59'0 0.0
2018-Jun-20 16:28N 20°29' W 086°59'0 0.0
2018-Jun-20 15:58N 20°29' W 086°59'0 0.3
2018-Jun-20 15:30N 20°29' W 086°59'5 9.3
2018-Jun-20 15:01N 20°33' W 086°60'8817.5
2018-Jun-20 10:00N 21°30' W 085°48'4718.4 110 / 181013.510.8 26.021.829.0
2018-Jun-20 07:28N 22°06' W 085°17'35211.2
2018-Jun-18 23:54N 25°11' W 079°50'614.9
2018-Jun-18 23:31N 25°17' W 079°48'714.7
2018-Jun-18 23:00N 25°24' W 079°47'714.4
2018-Jun-18 22:31N 25°31' W 079°46'612.4
2018-Jun-18 22:00N 25°37' W 079°48'5 9.3
2018-Jun-18 21:30N 25°40' W 079°52'5 9.3
2018-Jun-18 21:00N 25°43' W 079°57'5 9.6
2018-Jun-18 20:30N 25°45' W 080°01'5 9.7
2018-Jun-18 20:00N 25°46' W 080°06'3 5.8
2018-Jun-18 19:28N 25°46' W 080°10'0 0.0
2018-Jun-18 18:58N 25°46' W 080°10'0 0.0
2018-Jun-18 18:28N 25°46' W 080°10'0 0.0
2018-Jun-18 17:58N 25°46' W 080°10'0 0.0
2018-Jun-18 17:30N 25°46' W 080°10'  
Track history (hours):
 
Tides and Currents Weather Stations Pressure Air Temp Water Temp Dewpoint Dewpoint Depression Visibility Wind Speed Wind Dir Waves Ship Positions

Carnival Victory

Operator: Carnival Cruise Lines

Last reported at 2018-Jun-23 00:30 UTC. Time now 2018-Jun-23 00:26 UTC.
Position N 26°14' W 079°15'.

Type: Passenger vessel. MMSI: 355263000.

Date/timePositionNaut miles runAvg speedWind from/ knotsBaromVisibWave heightAir tempDewpointWater temp
2018-Jun-23 00:30N 26°14' W 079°15'612.6
2018-Jun-23 00:00N 26°10' W 079°21'611.9
2018-Jun-22 23:30N 26°07' W 079°27'611.5
2018-Jun-22 23:00N 26°04' W 079°32'611.5
2018-Jun-22 22:30N 26°01' W 079°38'611.7
2018-Jun-22 22:00N 25°58' W 079°43'713.2
2018-Jun-22 21:30N 25°54' W 079°49'816.3
2018-Jun-22 21:00N 25°50' W 079°57'714.4
2018-Jun-22 20:30N 25°46' W 080°04'5 9.6
2018-Jun-22 20:00N 25°46' W 080°09'1 1.4
2018-Jun-22 19:30N 25°47' W 080°10'0 0.0
2018-Jun-22 19:00N 25°47' W 080°10'0 0.0
2018-Jun-22 18:30N 25°47' W 080°10'0 0.0
2018-Jun-22 18:00N 25°47' W 080°10'0 0.0
2018-Jun-22 17:24N 25°47' W 080°10'0 0.0
2018-Jun-22 17:00N 25°47' W 080°10'0 0.0
2018-Jun-22 16:27N 25°47' W 080°10'0 0.0
2018-Jun-22 15:57N 25°47' W 080°10'0 0.0
2018-Jun-22 15:21N 25°47' W 080°10'0 0.0
2018-Jun-22 14:57N 25°47' W 080°10'0 0.0
2018-Jun-22 14:24N 25°47' W 080°10'0 0.0
2018-Jun-22 13:57N 25°47' W 080°10'0 0.0
2018-Jun-22 13:30N 25°47' W 080°10'0 0.0
2018-Jun-22 13:00N 25°47' W 080°10'0 0.0
2018-Jun-22 12:27N 25°47' W 080°10'0 0.0
2018-Jun-22 12:00N 25°47' W 080°10'0 0.0
2018-Jun-22 11:30N 25°47' W 080°10'0 0.0
2018-Jun-22 10:57N 25°47' W 080°10'0 0.3
2018-Jun-22 10:30N 25°47' W 080°10'0 0.9
2018-Jun-22 10:00N 25°47' W 080°10'5 9.7
2018-Jun-22 09:31N 25°46' W 080°04'5 9.8
2018-Jun-22 09:00N 25°45' W 079°59'510.5
2018-Jun-22 08:30N 25°41' W 079°56'511.1
2018-Jun-22 08:00N 25°36' W 079°55'712.9
2018-Jun-22 07:30N 25°29' W 079°54'612.8
2018-Jun-22 06:59N 25°23' W 079°55'18914.5
2018-Jun-21 18:00N 23°30' W 082°42'15419.2 050 / 11015.8 5.4 27.024.325.0
2018-Jun-21 10:00N 22°12' W 085°06'13119.2 120 / 141013.727.0 26.021.828.8
2018-Jun-21 03:10N 20°43' W 086°50'320.2
2018-Jun-21 03:00N 20°41' W 086°53'1019.3
2018-Jun-21 02:30N 20°33' W 086°59'5 8.8
2018-Jun-21 01:58N 20°29' W 086°59'0 0.0
2018-Jun-21 01:28N 20°29' W 086°59'0 0.0
2018-Jun-21 00:58N 20°29' W 086°59'0 0.0
2018-Jun-21 00:28N 20°29' W 086°59'0 0.0
2018-Jun-20 23:58N 20°29' W 086°59'0 0.0
2018-Jun-20 23:28N 20°29' W 086°59'0 0.0
2018-Jun-20 22:58N 20°29' W 086°59'0 0.0
2018-Jun-20 22:28N 20°29' W 086°59'0 0.0
2018-Jun-20 21:58N 20°29' W 086°59'0 0.0
2018-Jun-20 21:28N 20°29' W 086°59'0 0.0
2018-Jun-20 20:55N 20°29' W 086°59'0 0.0
2018-Jun-20 20:28N 20°29' W 086°59'0 0.0
2018-Jun-20 19:58N 20°29' W 086°59'0 0.0
2018-Jun-20 19:28N 20°29' W 086°59'0 0.0
2018-Jun-20 18:55N 20°29' W 086°59'0 0.0
2018-Jun-20 18:28N 20°29' W 086°59'0 0.0
2018-Jun-20 17:58N 20°29' W 086°59'0 0.0
2018-Jun-20 17:28N 20°29' W 086°59'0 0.0
2018-Jun-20 16:58N 20°29' W 086°59'0 0.0
2018-Jun-20 16:28N 20°29' W 086°59'0 0.0
2018-Jun-20 15:58N 20°29' W 086°59'0 0.3
2018-Jun-20 15:30N 20°29' W 086°59'5 9.3
2018-Jun-20 15:01N 20°33' W 086°60'8817.5
2018-Jun-20 10:00N 21°30' W 085°48'4718.4 110 / 181013.510.8 26.021.829.0
2018-Jun-20 07:28N 22°06' W 085°17'35211.2
2018-Jun-18 23:54N 25°11' W 079°50'614.9
2018-Jun-18 23:31N 25°17' W 079°48'714.7
2018-Jun-18 23:00N 25°24' W 079°47'714.4
2018-Jun-18 22:31N 25°31' W 079°46'612.4
2018-Jun-18 22:00N 25°37' W 079°48'5 9.3
2018-Jun-18 21:30N 25°40' W 079°52'5 9.3
2018-Jun-18 21:00N 25°43' W 079°57'5 9.6
2018-Jun-18 20:30N 25°45' W 080°01'5 9.7
2018-Jun-18 20:00N 25°46' W 080°06'3 5.8
2018-Jun-18 19:28N 25°46' W 080°10'0 0.0
2018-Jun-18 18:58N 25°46' W 080°10'0 0.0
2018-Jun-18 18:28N 25°46' W 080°10'0 0.0
2018-Jun-18 17:58N 25°46' W 080°10'0 0.0
2018-Jun-18 17:30N 25°46' W 080°10'  

Dump ship's entire track history